sensor_id;sensor_type;location;lat;lon;timestamp;temperature;humidity
5136;DHT22;2586;48.710;9.202;2022-12-18T00:00:43;-11.10;1.00
5136;DHT22;2586;48.710;9.202;2022-12-18T00:03:09;-11.40;1.00
5136;DHT22;2586;48.710;9.202;2022-12-18T00:05:35;-11.50;99.90
5136;DHT22;2586;48.710;9.202;2022-12-18T00:08:00;-11.40;1.00
5136;DHT22;2586;48.710;9.202;2022-12-18T00:10:27;-11.40;1.00
5136;DHT22;2586;48.710;9.202;2022-12-18T00:12:52;-11.30;1.00
5136;DHT22;2586;48.710;9.202;2022-12-18T00:15:18;-11.20;1.00
5136;DHT22;2586;48.710;9.202;2022-12-18T00:17:44;-11.10;99.90
5136;DHT22;2586;48.710;9.202;2022-12-18T00:20:10;-11.00;99.90
5136;DHT22;2586;48.710;9.202;2022-12-18T00:22:35;-10.90;99.90
5136;DHT22;2586;48.710;9.202;2022-12-18T00:25:01;-10.70;99.90
5136;DHT22;2586;48.710;9.202;2022-12-18T00:27:26;-10.70;99.90
5136;DHT22;2586;48.710;9.202;2022-12-18T00:29:52;-10.70;99.90
5136;DHT22;2586;48.710;9.202;2022-12-18T00:32:17;-10.60;99.90
5136;DHT22;2586;48.710;9.202;2022-12-18T00:34:43;-10.50;1.00
5136;DHT22;2586;48.710;9.202;2022-12-18T00:37:09;-10.30;1.00
5136;DHT22;2586;48.710;9.202;2022-12-18T00:39:34;-10.10;73.30
5136;DHT22;2586;48.710;9.202;2022-12-18T00:42:00;-10.00;90.40
5136;DHT22;2586;48.710;9.202;2022-12-18T00:44:44;-9.90;99.90
5136;DHT22;2586;48.710;9.202;2022-12-18T00:47:09;-10.00;1.00
5136;DHT22;2586;48.710;9.202;2022-12-18T00:49:35;-10.10;1.00
5136;DHT22;2586;48.710;9.202;2022-12-18T00:52:00;-10.30;1.00
5136;DHT22;2586;48.710;9.202;2022-12-18T00:54:26;-10.30;1.00
5136;DHT22;2586;48.710;9.202;2022-12-18T00:56:51;-10.40;99.90
5136;DHT22;2586;48.710;9.202;2022-12-18T00:59:18;-10.30;1.00
5136;DHT22;2586;48.710;9.202;2022-12-18T01:01:44;-10.20;2.90
5136;DHT22;2586;48.710;9.202;2022-12-18T01:04:09;-10.20;26.40
5136;DHT22;2586;48.710;9.202;2022-12-18T01:06:35;-10.20;1.00
5136;DHT22;2586;48.710;9.202;2022-12-18T01:09:01;-10.30;99.90
5136;DHT22;2586;48.710;9.202;2022-12-18T01:11:27;-10.40;1.00
5136;DHT22;2586;48.710;9.202;2022-12-18T01:13:53;-10.50;1.00
5136;DHT22;2586;48.710;9.202;2022-12-18T01:16:19;-10.60;1.00
5136;DHT22;2586;48.710;9.202;2022-12-18T01:18:45;-10.70;1.00
5136;DHT22;2586;48.710;9.202;2022-12-18T01:21:14;-10.60;1.00
5136;DHT22;2586;48.710;9.202;2022-12-18T01:23:40;-10.50;98.90
5136;DHT22;2586;48.710;9.202;2022-12-18T01:26:11;-10.60;66.80
5136;DHT22;2586;48.710;9.202;2022-12-18T01:28:38;-10.90;1.00
5136;DHT22;2586;48.710;9.202;2022-12-18T01:31:17;-11.00;99.90
5136;DHT22;2586;48.710;9.202;2022-12-18T01:33:43;-11.10;1.00
5136;DHT22;2586;48.710;9.202;2022-12-18T01:36:15;-11.10;99.90
5136;DHT22;2586;48.710;9.202;2022-12-18T01:38:40;-11.00;1.00
5136;DHT22;2586;48.710;9.202;2022-12-18T01:41:06;-10.90;26.10
5136;DHT22;2586;48.710;9.202;2022-12-18T01:46:54;-10.90;99.90
5136;DHT22;2586;48.710;9.202;2022-12-18T01:49:20;-11.10;1.00
5136;DHT22;2586;48.710;9.202;2022-12-18T01:51:45;-11.20;1.00
5136;DHT22;2586;48.710;9.202;2022-12-18T01:54:11;-11.30;1.00
5136;DHT22;2586;48.710;9.202;2022-12-18T01:56:36;-11.30;1.00
5136;DHT22;2586;48.710;9.202;2022-12-18T01:59:04;-11.40;1.00
5136;DHT22;2586;48.710;9.202;2022-12-18T02:01:33;-11.40;99.90
5136;DHT22;2586;48.710;9.202;2022-12-18T02:04:20;-11.50;1.00
5136;DHT22;2586;48.710;9.202;2022-12-18T02:06:47;-11.40;1.00
5136;DHT22;2586;48.710;9.202;2022-12-18T02:09:23;-11.40;1.00
5136;DHT22;2586;48.710;9.202;2022-12-18T02:11:59;-11.40;99.90
5136;DHT22;2586;48.710;9.202;2022-12-18T02:14:38;-11.40;1.00
5136;DHT22;2586;48.710;9.202;2022-12-18T02:17:31;-11.60;99.90
5136;DHT22;2586;48.710;9.202;2022-12-18T02:20:32;-11.50;1.00
5136;DHT22;2586;48.710;9.202;2022-12-18T02:23:57;-11.50;1.00
5136;DHT22;2586;48.710;9.202;2022-12-18T02:29:02;-11.60;1.00
5136;DHT22;2586;48.710;9.202;2022-12-18T02:31:35;-11.40;99.90
5136;DHT22;2586;48.710;9.202;2022-12-18T02:34:03;-11.30;1.00
5136;DHT22;2586;48.710;9.202;2022-12-18T02:36:31;-11.20;99.90
5136;DHT22;2586;48.710;9.202;2022-12-18T02:38:58;-11.30;99.90
5136;DHT22;2586;48.710;9.202;2022-12-18T02:41:25;-11.30;99.90
5136;DHT22;2586;48.710;9.202;2022-12-18T02:44:01;-11.30;99.90
5136;DHT22;2586;48.710;9.202;2022-12-18T02:49:47;-11.10;1.00
5136;DHT22;2586;48.710;9.202;2022-12-18T02:55:10;-10.90;99.90
5136;DHT22;2586;48.710;9.202;2022-12-18T02:58:21;-10.90;1.00
5136;DHT22;2586;48.710;9.202;2022-12-18T03:01:09;-10.90;1.00
5136;DHT22;2586;48.710;9.202;2022-12-18T03:03:41;-10.90;1.00
5136;DHT22;2586;48.710;9.202;2022-12-18T03:06:14;-10.90;1.00
5136;DHT22;2586;48.710;9.202;2022-12-18T03:08:44;-10.80;1.00
5136;DHT22;2586;48.710;9.202;2022-12-18T03:11:13;-10.80;99.90
5136;DHT22;2586;48.710;9.202;2022-12-18T03:16:09;-11.10;99.90
5136;DHT22;2586;48.710;9.202;2022-12-18T03:18:39;-11.00;99.90
5136;DHT22;2586;48.710;9.202;2022-12-18T03:21:08;-11.00;99.90
5136;DHT22;2586;48.710;9.202;2022-12-18T03:23:44;-11.20;90.70
5136;DHT22;2586;48.710;9.202;2022-12-18T03:26:15;-11.20;90.50
5136;DHT22;2586;48.710;9.202;2022-12-18T03:28:49;-11.30;1.00
5136;DHT22;2586;48.710;9.202;2022-12-18T03:31:16;-11.50;1.00
5136;DHT22;2586;48.710;9.202;2022-12-18T03:33:58;-11.60;54.10
5136;DHT22;2586;48.710;9.202;2022-12-18T03:36:25;-11.50;99.90
5136;DHT22;2586;48.710;9.202;2022-12-18T03:38:51;-11.40;1.00
5136;DHT22;2586;48.710;9.202;2022-12-18T03:43:58;-11.20;1.00
5136;DHT22;2586;48.710;9.202;2022-12-18T03:46:37;-11.20;79.40
5136;DHT22;2586;48.710;9.202;2022-12-18T03:49:19;-11.10;97.50
5136;DHT22;2586;48.710;9.202;2022-12-18T03:51:49;-11.10;99.90
5136;DHT22;2586;48.710;9.202;2022-12-18T03:54:17;-11.10;99.90
5136;DHT22;2586;48.710;9.202;2022-12-18T03:56:47;-11.10;99.90
5136;DHT22;2586;48.710;9.202;2022-12-18T03:59:15;-11.00;99.90
5136;DHT22;2586;48.710;9.202;2022-12-18T04:01:46;-11.00;99.90
5136;DHT22;2586;48.710;9.202;2022-12-18T04:04:13;-11.10;1.00
5136;DHT22;2586;48.710;9.202;2022-12-18T04:06:42;-11.20;1.00
5136;DHT22;2586;48.710;9.202;2022-12-18T04:09:08;-11.20;1.00
5136;DHT22;2586;48.710;9.202;2022-12-18T04:11:33;-11.20;1.00
5136;DHT22;2586;48.710;9.202;2022-12-18T04:13:59;-11.20;1.00
5136;DHT22;2586;48.710;9.202;2022-12-18T04:16:26;-11.20;99.90
5136;DHT22;2586;48.710;9.202;2022-12-18T04:18:52;-11.20;16.30
5136;DHT22;2586;48.710;9.202;2022-12-18T04:21:18;-11.20;1.00
5136;DHT22;2586;48.710;9.202;2022-12-18T04:23:44;-11.30;1.00
5136;DHT22;2586;48.710;9.202;2022-12-18T04:26:10;-11.20;1.00
5136;DHT22;2586;48.710;9.202;2022-12-18T04:28:35;-11.50;1.00
5136;DHT22;2586;48.710;9.202;2022-12-18T04:31:01;-11.60;1.00
5136;DHT22;2586;48.710;9.202;2022-12-18T04:33:27;-11.70;1.00
5136;DHT22;2586;48.710;9.202;2022-12-18T04:35:52;-11.80;22.00
5136;DHT22;2586;48.710;9.202;2022-12-18T04:38:18;-11.90;1.00
5136;DHT22;2586;48.710;9.202;2022-12-18T04:40:44;-12.00;1.00
5136;DHT22;2586;48.710;9.202;2022-12-18T04:43:09;-12.10;1.00
5136;DHT22;2586;48.710;9.202;2022-12-18T04:45:35;-12.20;1.00
5136;DHT22;2586;48.710;9.202;2022-12-18T04:48:02;-12.30;1.00
5136;DHT22;2586;48.710;9.202;2022-12-18T04:50:28;-12.20;1.00
5136;DHT22;2586;48.710;9.202;2022-12-18T04:52:54;-12.20;96.60
5136;DHT22;2586;48.710;9.202;2022-12-18T04:55:20;-12.10;99.90
5136;DHT22;2586;48.710;9.202;2022-12-18T04:57:45;-12.00;99.90
5136;DHT22;2586;48.710;9.202;2022-12-18T05:00:11;-11.90;1.00
5136;DHT22;2586;48.710;9.202;2022-12-18T05:02:37;-11.80;1.00
5136;DHT22;2586;48.710;9.202;2022-12-18T05:05:03;-11.80;1.00
5136;DHT22;2586;48.710;9.202;2022-12-18T05:07:28;-11.80;1.00
5136;DHT22;2586;48.710;9.202;2022-12-18T05:09:54;-11.80;1.00
5136;DHT22;2586;48.710;9.202;2022-12-18T05:12:19;-11.70;1.00
5136;DHT22;2586;48.710;9.202;2022-12-18T05:14:45;-11.70;1.00
5136;DHT22;2586;48.710;9.202;2022-12-18T05:17:10;-11.80;99.90
5136;DHT22;2586;48.710;9.202;2022-12-18T05:19:37;-11.80;99.90
5136;DHT22;2586;48.710;9.202;2022-12-18T05:22:03;-11.70;1.00
5136;DHT22;2586;48.710;9.202;2022-12-18T05:24:28;-11.80;99.90
5136;DHT22;2586;48.710;9.202;2022-12-18T05:26:54;-11.80;99.90
5136;DHT22;2586;48.710;9.202;2022-12-18T05:29:19;-11.80;99.90
5136;DHT22;2586;48.710;9.202;2022-12-18T05:31:45;-11.80;1.00
5136;DHT22;2586;48.710;9.202;2022-12-18T05:34:10;-11.80;1.00
5136;DHT22;2586;48.710;9.202;2022-12-18T05:36:36;-11.70;1.00
5136;DHT22;2586;48.710;9.202;2022-12-18T05:39:02;-11.80;99.90
5136;DHT22;2586;48.710;9.202;2022-12-18T05:41:28;-11.80;99.90
5136;DHT22;2586;48.710;9.202;2022-12-18T05:43:54;-11.90;99.90
5136;DHT22;2586;48.710;9.202;2022-12-18T05:46:19;-11.90;20.80
5136;DHT22;2586;48.710;9.202;2022-12-18T05:48:45;-12.00;1.00
5136;DHT22;2586;48.710;9.202;2022-12-18T05:51:15;-11.90;99.90
5136;DHT22;2586;48.710;9.202;2022-12-18T05:53:41;-12.20;1.00
5136;DHT22;2586;48.710;9.202;2022-12-18T05:56:14;-12.40;99.90
5136;DHT22;2586;48.710;9.202;2022-12-18T05:58:40;-12.60;99.90
5136;DHT22;2586;48.710;9.202;2022-12-18T06:01:21;-12.50;1.00
5136;DHT22;2586;48.710;9.202;2022-12-18T06:03:47;-12.50;1.00
5136;DHT22;2586;48.710;9.202;2022-12-18T06:06:26;-12.60;99.90
5136;DHT22;2586;48.710;9.202;2022-12-18T06:08:53;-12.70;1.00
5136;DHT22;2586;48.710;9.202;2022-12-18T06:11:22;-12.80;1.00
5136;DHT22;2586;48.710;9.202;2022-12-18T06:13:55;-12.80;99.90
5136;DHT22;2586;48.710;9.202;2022-12-18T06:16:21;-12.90;99.90
5136;DHT22;2586;48.710;9.202;2022-12-18T06:18:46;-13.00;99.90
5136;DHT22;2586;48.710;9.202;2022-12-18T06:21:12;-13.00;99.90
5136;DHT22;2586;48.710;9.202;2022-12-18T06:23:38;-13.10;99.90
5136;DHT22;2586;48.710;9.202;2022-12-18T06:26:08;-13.00;1.00
5136;DHT22;2586;48.710;9.202;2022-12-18T06:28:34;-13.00;1.00
5136;DHT22;2586;48.710;9.202;2022-12-18T06:30:59;-13.00;99.90
5136;DHT22;2586;48.710;9.202;2022-12-18T06:33:28;-13.10;99.90
5136;DHT22;2586;48.710;9.202;2022-12-18T06:35:58;-13.30;99.90
5136;DHT22;2586;48.710;9.202;2022-12-18T06:38:24;-13.40;99.90
5136;DHT22;2586;48.710;9.202;2022-12-18T06:40:50;-13.30;1.00
5136;DHT22;2586;48.710;9.202;2022-12-18T06:43:15;-13.10;95.50
5136;DHT22;2586;48.710;9.202;2022-12-18T06:45:41;-13.00;99.90
5136;DHT22;2586;48.710;9.202;2022-12-18T06:48:07;-12.90;1.00
5136;DHT22;2586;48.710;9.202;2022-12-18T06:50:33;-12.80;99.90
5136;DHT22;2586;48.710;9.202;2022-12-18T06:52:59;-12.70;99.90
5136;DHT22;2586;48.710;9.202;2022-12-18T06:55:25;-12.60;99.90
5136;DHT22;2586;48.710;9.202;2022-12-18T06:57:50;-12.70;99.90
5136;DHT22;2586;48.710;9.202;2022-12-18T07:00:16;-12.90;1.00
5136;DHT22;2586;48.710;9.202;2022-12-18T07:02:42;-13.00;99.90
5136;DHT22;2586;48.710;9.202;2022-12-18T07:05:07;-13.20;99.90
5136;DHT22;2586;48.710;9.202;2022-12-18T07:07:34;-13.20;1.00
5136;DHT22;2586;48.710;9.202;2022-12-18T07:09:59;-13.20;1.00
5136;DHT22;2586;48.710;9.202;2022-12-18T07:12:27;-13.20;1.00
5136;DHT22;2586;48.710;9.202;2022-12-18T07:14:52;-13.10;1.00
5136;DHT22;2586;48.710;9.202;2022-12-18T07:17:18;-12.90;99.90
5136;DHT22;2586;48.710;9.202;2022-12-18T07:19:44;-12.70;1.00
5136;DHT22;2586;48.710;9.202;2022-12-18T07:22:09;-12.60;1.00
5136;DHT22;2586;48.710;9.202;2022-12-18T07:24:36;-12.40;1.00
5136;DHT22;2586;48.710;9.202;2022-12-18T07:27:01;-12.30;1.00
5136;DHT22;2586;48.710;9.202;2022-12-18T07:29:27;-12.10;1.00
5136;DHT22;2586;48.710;9.202;2022-12-18T07:31:52;-12.00;1.00
5136;DHT22;2586;48.710;9.202;2022-12-18T07:34:18;-12.00;99.90
5136;DHT22;2586;48.710;9.202;2022-12-18T07:36:44;-11.90;99.90
5136;DHT22;2586;48.710;9.202;2022-12-18T07:39:10;-11.80;99.90
5136;DHT22;2586;48.710;9.202;2022-12-18T07:41:36;-11.70;99.90
5136;DHT22;2586;48.710;9.202;2022-12-18T07:44:02;-11.60;99.90
5136;DHT22;2586;48.710;9.202;2022-12-18T07:46:27;-11.50;1.00
5136;DHT22;2586;48.710;9.202;2022-12-18T07:48:53;-11.40;1.00
5136;DHT22;2586;48.710;9.202;2022-12-18T07:51:19;-11.40;99.90
5136;DHT22;2586;48.710;9.202;2022-12-18T07:53:47;-11.20;99.90
5136;DHT22;2586;48.710;9.202;2022-12-18T07:56:13;-11.00;99.90
5136;DHT22;2586;48.710;9.202;2022-12-18T07:58:38;-10.80;99.90
5136;DHT22;2586;48.710;9.202;2022-12-18T08:01:11;-10.60;1.00
5136;DHT22;2586;48.710;9.202;2022-12-18T08:03:38;-10.40;1.00
5136;DHT22;2586;48.710;9.202;2022-12-18T08:06:05;-10.40;99.90
5136;DHT22;2586;48.710;9.202;2022-12-18T08:08:32;-10.60;1.00
5136;DHT22;2586;48.710;9.202;2022-12-18T08:10:58;-10.60;99.90
5136;DHT22;2586;48.710;9.202;2022-12-18T08:13:24;-10.50;99.90
5136;DHT22;2586;48.710;9.202;2022-12-18T08:16:04;-10.40;99.90
5136;DHT22;2586;48.710;9.202;2022-12-18T08:18:31;-10.20;99.90
5136;DHT22;2586;48.710;9.202;2022-12-18T08:21:13;-10.10;99.90
5136;DHT22;2586;48.710;9.202;2022-12-18T08:23:40;-9.70;1.00
5136;DHT22;2586;48.710;9.202;2022-12-18T08:26:06;-9.40;99.90
5136;DHT22;2586;48.710;9.202;2022-12-18T08:28:32;-9.60;1.00
5136;DHT22;2586;48.710;9.202;2022-12-18T08:30:58;-9.40;18.40
5136;DHT22;2586;48.710;9.202;2022-12-18T08:33:23;-9.30;18.40
5136;DHT22;2586;48.710;9.202;2022-12-18T08:35:49;-9.10;41.70
5136;DHT22;2586;48.710;9.202;2022-12-18T08:38:15;-8.80;35.80
5136;DHT22;2586;48.710;9.202;2022-12-18T08:40:40;-8.50;99.90
5136;DHT22;2586;48.710;9.202;2022-12-18T08:43:09;-8.40;12.70
5136;DHT22;2586;48.710;9.202;2022-12-18T08:45:53;-8.40;1.00
5136;DHT22;2586;48.710;9.202;2022-12-18T08:48:19;-8.30;1.00
5136;DHT22;2586;48.710;9.202;2022-12-18T08:50:54;-8.20;1.00
5136;DHT22;2586;48.710;9.202;2022-12-18T08:53:20;-8.20;1.00
5136;DHT22;2586;48.710;9.202;2022-12-18T08:55:45;-7.90;10.30
5136;DHT22;2586;48.710;9.202;2022-12-18T08:58:11;-7.60;16.40
5136;DHT22;2586;48.710;9.202;2022-12-18T09:00:36;-7.40;1.00
5136;DHT22;2586;48.710;9.202;2022-12-18T09:03:02;-7.20;1.00
5136;DHT22;2586;48.710;9.202;2022-12-18T09:05:27;-7.30;99.90
5136;DHT22;2586;48.710;9.202;2022-12-18T09:07:53;-7.30;1.00
5136;DHT22;2586;48.710;9.202;2022-12-18T09:10:18;-7.10;1.00
5136;DHT22;2586;48.710;9.202;2022-12-18T09:12:44;-7.10;99.90
5136;DHT22;2586;48.710;9.202;2022-12-18T09:15:10;-7.00;1.00
5136;DHT22;2586;48.710;9.202;2022-12-18T09:17:35;-6.70;1.00
5136;DHT22;2586;48.710;9.202;2022-12-18T09:20:01;-6.60;99.90
5136;DHT22;2586;48.710;9.202;2022-12-18T09:22:26;-6.30;1.00
5136;DHT22;2586;48.710;9.202;2022-12-18T09:24:52;-6.00;1.00
5136;DHT22;2586;48.710;9.202;2022-12-18T09:27:17;-5.80;1.00
5136;DHT22;2586;48.710;9.202;2022-12-18T09:29:43;-5.50;1.00
5136;DHT22;2586;48.710;9.202;2022-12-18T09:32:08;-5.40;99.90
5136;DHT22;2586;48.710;9.202;2022-12-18T09:34:34;-5.30;99.90
5136;DHT22;2586;48.710;9.202;2022-12-18T09:36:59;-5.10;99.90
5136;DHT22;2586;48.710;9.202;2022-12-18T09:39:25;-5.30;99.90
5136;DHT22;2586;48.710;9.202;2022-12-18T09:41:57;-5.10;99.90
5136;DHT22;2586;48.710;9.202;2022-12-18T09:44:41;-4.80;99.90
5136;DHT22;2586;48.710;9.202;2022-12-18T09:47:18;-4.90;1.00
5136;DHT22;2586;48.710;9.202;2022-12-18T09:49:48;-5.00;9.90
5136;DHT22;2586;48.710;9.202;2022-12-18T09:52:21;-4.60;99.90
5136;DHT22;2586;48.710;9.202;2022-12-18T09:54:57;-4.10;33.10
5136;DHT22;2586;48.710;9.202;2022-12-18T09:57:25;-3.70;1.00
5136;DHT22;2586;48.710;9.202;2022-12-18T10:00:16;-3.40;1.00
5136;DHT22;2586;48.710;9.202;2022-12-18T10:02:43;-3.40;1.00
5136;DHT22;2586;48.710;9.202;2022-12-18T10:05:16;-3.10;1.00
5136;DHT22;2586;48.710;9.202;2022-12-18T10:10:50;-0.30;99.90
5136;DHT22;2586;48.710;9.202;2022-12-18T10:13:33;-1.80;99.90
5136;DHT22;2586;48.710;9.202;2022-12-18T10:16:09;-3.00;99.90
5136;DHT22;2586;48.710;9.202;2022-12-18T10:21:34;-2.70;99.90
5136;DHT22;2586;48.710;9.202;2022-12-18T10:24:23;-2.30;99.90
5136;DHT22;2586;48.710;9.202;2022-12-18T10:26:52;-2.10;99.90
5136;DHT22;2586;48.710;9.202;2022-12-18T10:29:19;-1.70;99.90
5136;DHT22;2586;48.710;9.202;2022-12-18T10:31:45;-1.50;99.90
5136;DHT22;2586;48.710;9.202;2022-12-18T10:34:11;-1.10;99.90
5136;DHT22;2586;48.710;9.202;2022-12-18T10:36:40;-1.20;99.90
5136;DHT22;2586;48.710;9.202;2022-12-18T10:39:23;-1.00;99.90
5136;DHT22;2586;48.710;9.202;2022-12-18T10:41:50;-0.60;99.90
5136;DHT22;2586;48.710;9.202;2022-12-18T10:44:20;-0.30;99.90
5136;DHT22;2586;48.710;9.202;2022-12-18T10:46:49;-0.50;99.90
5136;DHT22;2586;48.710;9.202;2022-12-18T10:49:21;-0.50;99.90
5136;DHT22;2586;48.710;9.202;2022-12-18T10:51:48;-0.40;99.90
5136;DHT22;2586;48.710;9.202;2022-12-18T10:54:22;-0.40;99.90
5136;DHT22;2586;48.710;9.202;2022-12-18T10:56:48;-0.30;99.90
5136;DHT22;2586;48.710;9.202;2022-12-18T10:59:16;0.00;99.90
5136;DHT22;2586;48.710;9.202;2022-12-18T11:01:49;0.30;99.90
5136;DHT22;2586;48.710;9.202;2022-12-18T11:04:29;0.40;99.90
5136;DHT22;2586;48.710;9.202;2022-12-18T11:07:06;0.40;99.90
5136;DHT22;2586;48.710;9.202;2022-12-18T11:09:34;0.60;99.90
5136;DHT22;2586;48.710;9.202;2022-12-18T11:12:18;0.80;99.90
5136;DHT22;2586;48.710;9.202;2022-12-18T11:14:49;1.30;99.90
5136;DHT22;2586;48.710;9.202;2022-12-18T11:17:33;1.60;1.00
5136;DHT22;2586;48.710;9.202;2022-12-18T11:20:02;1.90;99.90
5136;DHT22;2586;48.710;9.202;2022-12-18T11:22:31;2.10;99.90
5136;DHT22;2586;48.710;9.202;2022-12-18T11:25:04;1.80;99.90
5136;DHT22;2586;48.710;9.202;2022-12-18T11:27:31;2.00;99.90
5136;DHT22;2586;48.710;9.202;2022-12-18T11:30:21;1.90;99.90
5136;DHT22;2586;48.710;9.202;2022-12-18T11:32:52;2.30;99.90
5136;DHT22;2586;48.710;9.202;2022-12-18T11:40:38;2.80;99.90
5136;DHT22;2586;48.710;9.202;2022-12-18T11:46:15;2.70;99.90
5136;DHT22;2586;48.710;9.202;2022-12-18T11:48:51;2.60;99.90
5136;DHT22;2586;48.710;9.202;2022-12-18T11:51:37;2.60;99.90
5136;DHT22;2586;48.710;9.202;2022-12-18T11:54:14;2.70;99.90
5136;DHT22;2586;48.710;9.202;2022-12-18T11:56:49;2.80;99.90
5136;DHT22;2586;48.710;9.202;2022-12-18T11:59:42;3.00;99.90
5136;DHT22;2586;48.710;9.202;2022-12-18T12:08:09;3.60;94.10
5136;DHT22;2586;48.710;9.202;2022-12-18T12:16:09;2.20;91.20
5136;DHT22;2586;48.710;9.202;2022-12-18T12:25:22;1.80;99.90
5136;DHT22;2586;48.710;9.202;2022-12-18T12:39:22;1.70;99.90
5136;DHT22;2586;48.710;9.202;2022-12-18T12:41:48;1.30;99.90
5136;DHT22;2586;48.710;9.202;2022-12-18T12:44:38;1.00;99.90
5136;DHT22;2586;48.710;9.202;2022-12-18T12:47:20;0.90;99.90
5136;DHT22;2586;48.710;9.202;2022-12-18T12:49:47;0.90;99.90
5136;DHT22;2586;48.710;9.202;2022-12-18T12:52:50;0.80;99.90
5136;DHT22;2586;48.710;9.202;2022-12-18T12:55:28;0.80;99.90
5136;DHT22;2586;48.710;9.202;2022-12-18T12:58:07;0.80;99.90
5136;DHT22;2586;48.710;9.202;2022-12-18T13:00:41;0.80;99.90
5136;DHT22;2586;48.710;9.202;2022-12-18T13:03:35;0.40;99.90
5136;DHT22;2586;48.710;9.202;2022-12-18T13:08:57;0.30;99.90
5136;DHT22;2586;48.710;9.202;2022-12-18T13:14:38;0.70;99.90
5136;DHT22;2586;48.710;9.202;2022-12-18T13:17:26;0.50;99.90
5136;DHT22;2586;48.710;9.202;2022-12-18T13:20:23;0.60;99.90
5136;DHT22;2586;48.710;9.202;2022-12-18T13:22:57;0.00;99.90
5136;DHT22;2586;48.710;9.202;2022-12-18T13:25:32;-0.10;99.90
5136;DHT22;2586;48.710;9.202;2022-12-18T13:28:03;-0.10;99.90
5136;DHT22;2586;48.710;9.202;2022-12-18T13:36:16;-0.30;99.90
5136;DHT22;2586;48.710;9.202;2022-12-18T13:38:44;-0.10;99.90
5136;DHT22;2586;48.710;9.202;2022-12-18T13:41:26;-0.10;99.90
5136;DHT22;2586;48.710;9.202;2022-12-18T13:43:57;0.00;99.90
5136;DHT22;2586;48.710;9.202;2022-12-18T13:46:46;-0.20;99.90
5136;DHT22;2586;48.710;9.202;2022-12-18T13:51:41;-0.30;1.00
5136;DHT22;2586;48.710;9.202;2022-12-18T13:54:47;-0.30;1.00
5136;DHT22;2586;48.710;9.202;2022-12-18T13:57:05;-0.40;1.00
5136;DHT22;2586;48.710;9.202;2022-12-18T13:59:51;-0.50;1.00
5136;DHT22;2586;48.710;9.202;2022-12-18T14:02:22;-0.60;1.00
5136;DHT22;2586;48.710;9.202;2022-12-18T14:04:50;-0.50;1.00
5136;DHT22;2586;48.710;9.202;2022-12-18T14:07:21;-0.60;1.00
5136;DHT22;2586;48.710;9.202;2022-12-18T14:09:52;-0.70;1.00
5136;DHT22;2586;48.710;9.202;2022-12-18T14:12:22;-0.80;1.00
5136;DHT22;2586;48.710;9.202;2022-12-18T14:15:21;-0.80;1.00
5136;DHT22;2586;48.710;9.202;2022-12-18T14:17:50;-0.80;1.00
5136;DHT22;2586;48.710;9.202;2022-12-18T14:20:17;-1.00;1.00
5136;DHT22;2586;48.710;9.202;2022-12-18T14:22:44;-1.30;1.00
5136;DHT22;2586;48.710;9.202;2022-12-18T14:25:21;-1.50;28.60
5136;DHT22;2586;48.710;9.202;2022-12-18T14:27:51;-1.60;99.90
5136;DHT22;2586;48.710;9.202;2022-12-18T14:33:02;-1.10;1.00
5136;DHT22;2586;48.710;9.202;2022-12-18T14:35:28;-1.10;99.90
5136;DHT22;2586;48.710;9.202;2022-12-18T14:40:36;-0.90;1.00
5136;DHT22;2586;48.710;9.202;2022-12-18T14:43:02;-1.50;1.00
5136;DHT22;2586;48.710;9.202;2022-12-18T14:45:34;-1.90;99.90
5136;DHT22;2586;48.710;9.202;2022-12-18T14:48:18;-2.00;1.00
5136;DHT22;2586;48.710;9.202;2022-12-18T14:50:45;-2.10;1.00
5136;DHT22;2586;48.710;9.202;2022-12-18T14:53:22;-2.20;1.00
5136;DHT22;2586;48.710;9.202;2022-12-18T14:55:49;-2.40;29.00
5136;DHT22;2586;48.710;9.202;2022-12-18T14:58:16;-2.40;99.90
5136;DHT22;2586;48.710;9.202;2022-12-18T15:00:43;-2.50;99.90
5136;DHT22;2586;48.710;9.202;2022-12-18T15:03:09;-2.50;1.00
5136;DHT22;2586;48.710;9.202;2022-12-18T15:05:35;-2.60;1.00
5136;DHT22;2586;48.710;9.202;2022-12-18T15:08:01;-2.70;1.00
5136;DHT22;2586;48.710;9.202;2022-12-18T15:10:32;-2.80;1.00
5136;DHT22;2586;48.710;9.202;2022-12-18T15:18:00;-3.10;1.00
5136;DHT22;2586;48.710;9.202;2022-12-18T15:20:26;-3.20;99.90
5136;DHT22;2586;48.710;9.202;2022-12-18T15:22:52;-3.30;99.90
5136;DHT22;2586;48.710;9.202;2022-12-18T15:25:32;-3.40;99.90
5136;DHT22;2586;48.710;9.202;2022-12-18T15:27:59;-3.50;1.00
5136;DHT22;2586;48.710;9.202;2022-12-18T15:30:25;-3.60;1.00
5136;DHT22;2586;48.710;9.202;2022-12-18T15:32:52;-3.70;65.50
5136;DHT22;2586;48.710;9.202;2022-12-18T15:35:23;-3.70;99.90
5136;DHT22;2586;48.710;9.202;2022-12-18T15:37:52;-3.80;99.90
5136;DHT22;2586;48.710;9.202;2022-12-18T15:40:23;-3.90;99.90
5136;DHT22;2586;48.710;9.202;2022-12-18T15:42:51;-3.90;99.90
5136;DHT22;2586;48.710;9.202;2022-12-18T15:45:36;-3.90;1.00
5136;DHT22;2586;48.710;9.202;2022-12-18T15:48:15;-4.00;1.00
5136;DHT22;2586;48.710;9.202;2022-12-18T15:50:43;-4.10;1.00
5136;DHT22;2586;48.710;9.202;2022-12-18T15:53:09;-4.20;99.90
5136;DHT22;2586;48.710;9.202;2022-12-18T15:55:34;-4.20;99.90
5136;DHT22;2586;48.710;9.202;2022-12-18T15:58:18;-4.20;99.90
5136;DHT22;2586;48.710;9.202;2022-12-18T16:00:45;-4.20;99.90
5136;DHT22;2586;48.710;9.202;2022-12-18T16:03:10;-4.30;93.00
5136;DHT22;2586;48.710;9.202;2022-12-18T16:05:36;-4.40;99.90
5136;DHT22;2586;48.710;9.202;2022-12-18T16:08:02;-4.40;1.00
5136;DHT22;2586;48.710;9.202;2022-12-18T16:10:28;-4.40;1.00
5136;DHT22;2586;48.710;9.202;2022-12-18T16:12:53;-4.40;1.00
5136;DHT22;2586;48.710;9.202;2022-12-18T16:15:19;-4.40;1.00
5136;DHT22;2586;48.710;9.202;2022-12-18T16:17:46;-4.40;1.00
5136;DHT22;2586;48.710;9.202;2022-12-18T16:20:13;-4.40;99.90
5136;DHT22;2586;48.710;9.202;2022-12-18T16:22:41;-4.40;99.90
5136;DHT22;2586;48.710;9.202;2022-12-18T16:27:42;-4.50;99.90
5136;DHT22;2586;48.710;9.202;2022-12-18T16:30:13;-4.50;1.00
5136;DHT22;2586;48.710;9.202;2022-12-18T16:32:38;-4.50;99.90
5136;DHT22;2586;48.710;9.202;2022-12-18T16:35:04;-4.50;99.90
5136;DHT22;2586;48.710;9.202;2022-12-18T16:37:30;-4.50;99.90
5136;DHT22;2586;48.710;9.202;2022-12-18T16:39:55;-4.50;89.10
5136;DHT22;2586;48.710;9.202;2022-12-18T16:42:21;-4.50;1.00
5136;DHT22;2586;48.710;9.202;2022-12-18T16:44:47;-4.40;99.90
5136;DHT22;2586;48.710;9.202;2022-12-18T16:47:13;-4.40;99.90
5136;DHT22;2586;48.710;9.202;2022-12-18T16:49:39;-4.40;99.90
5136;DHT22;2586;48.710;9.202;2022-12-18T16:52:05;-4.40;99.90
5136;DHT22;2586;48.710;9.202;2022-12-18T16:54:31;-4.50;3.20
5136;DHT22;2586;48.710;9.202;2022-12-18T16:56:59;-4.60;99.90
5136;DHT22;2586;48.710;9.202;2022-12-18T16:59:25;-4.70;99.90
5136;DHT22;2586;48.710;9.202;2022-12-18T17:01:51;-4.60;1.00
5136;DHT22;2586;48.710;9.202;2022-12-18T17:04:17;-4.60;1.00
5136;DHT22;2586;48.710;9.202;2022-12-18T17:06:44;-4.70;1.00
5136;DHT22;2586;48.710;9.202;2022-12-18T17:09:12;-4.70;1.00
5136;DHT22;2586;48.710;9.202;2022-12-18T17:11:41;-4.70;1.00
5136;DHT22;2586;48.710;9.202;2022-12-18T17:14:09;-4.70;1.00
5136;DHT22;2586;48.710;9.202;2022-12-18T17:16:35;-4.70;85.80
5136;DHT22;2586;48.710;9.202;2022-12-18T17:19:00;-4.60;99.90
5136;DHT22;2586;48.710;9.202;2022-12-18T17:21:26;-4.60;99.90
5136;DHT22;2586;48.710;9.202;2022-12-18T17:23:52;-4.60;99.90
5136;DHT22;2586;48.710;9.202;2022-12-18T17:26:17;-4.50;99.90
5136;DHT22;2586;48.710;9.202;2022-12-18T17:28:43;-4.50;99.90
5136;DHT22;2586;48.710;9.202;2022-12-18T17:31:22;-4.40;99.90
5136;DHT22;2586;48.710;9.202;2022-12-18T17:33:48;-4.40;99.90
5136;DHT22;2586;48.710;9.202;2022-12-18T17:36:15;-4.40;99.90
5136;DHT22;2586;48.710;9.202;2022-12-18T17:38:41;-4.30;99.90
5136;DHT22;2586;48.710;9.202;2022-12-18T17:41:07;-4.30;1.00
5136;DHT22;2586;48.710;9.202;2022-12-18T17:43:34;-4.30;99.90
5136;DHT22;2586;48.710;9.202;2022-12-18T17:46:04;-4.30;99.90